sensor_id;sensor_type;location;lat;lon;timestamp;P1;durP1;ratioP1;P2;durP2;ratioP2
22752;SDS011;11543;43.144;24.684;2022-08-25T00:01:18;21.77;;;10.57;;
22752;SDS011;11543;43.144;24.684;2022-08-25T00:03:45;25.92;;;10.90;;
22752;SDS011;11543;43.144;24.684;2022-08-25T00:06:11;28.90;;;10.73;;
22752;SDS011;11543;43.144;24.684;2022-08-25T00:08:37;24.15;;;11.50;;
22752;SDS011;11543;43.144;24.684;2022-08-25T00:11:15;29.83;;;10.98;;
22752;SDS011;11543;43.144;24.684;2022-08-25T00:13:45;24.30;;;10.95;;
22752;SDS011;11543;43.144;24.684;2022-08-25T00:16:14;19.00;;;10.85;;
22752;SDS011;11543;43.144;24.684;2022-08-25T00:18:42;25.83;;;10.38;;
22752;SDS011;11543;43.144;24.684;2022-08-25T00:21:10;30.90;;;11.00;;
22752;SDS011;11543;43.144;24.684;2022-08-25T00:23:37;25.40;;;10.65;;
22752;SDS011;11543;43.144;24.684;2022-08-25T00:26:02;26.80;;;10.38;;
22752;SDS011;11543;43.144;24.684;2022-08-25T00:28:28;23.98;;;10.68;;
22752;SDS011;11543;43.144;24.684;2022-08-25T00:30:55;31.08;;;10.90;;
22752;SDS011;11543;43.144;24.684;2022-08-25T00:33:22;19.90;;;10.52;;
22752;SDS011;11543;43.144;24.684;2022-08-25T00:35:48;22.50;;;10.70;;
22752;SDS011;11543;43.144;24.684;2022-08-25T00:38:15;22.60;;;10.40;;
22752;SDS011;11543;43.144;24.684;2022-08-25T00:40:43;28.00;;;11.07;;
22752;SDS011;11543;43.144;24.684;2022-08-25T00:43:10;26.00;;;10.73;;
22752;SDS011;11543;43.144;24.684;2022-08-25T00:45:36;26.83;;;10.70;;
22752;SDS011;11543;43.144;24.684;2022-08-25T00:48:02;24.42;;;11.07;;
22752;SDS011;11543;43.144;24.684;2022-08-25T00:50:28;22.65;;;10.90;;
22752;SDS011;11543;43.144;24.684;2022-08-25T00:52:58;25.67;;;10.57;;
22752;SDS011;11543;43.144;24.684;2022-08-25T00:55:33;24.98;;;11.05;;
22752;SDS011;11543;43.144;24.684;2022-08-25T00:58:10;25.45;;;10.35;;
22752;SDS011;11543;43.144;24.684;2022-08-25T01:00:41;28.92;;;11.27;;
22752;SDS011;11543;43.144;24.684;2022-08-25T01:03:08;17.92;;;9.77;;
22752;SDS011;11543;43.144;24.684;2022-08-25T01:05:35;22.27;;;11.02;;
22752;SDS011;11543;43.144;24.684;2022-08-25T01:08:01;20.85;;;10.35;;
22752;SDS011;11543;43.144;24.684;2022-08-25T01:10:28;26.95;;;11.00;;
22752;SDS011;11543;43.144;24.684;2022-08-25T01:12:59;27.13;;;10.55;;
22752;SDS011;11543;43.144;24.684;2022-08-25T01:15:29;26.17;;;10.88;;
22752;SDS011;11543;43.144;24.684;2022-08-25T01:17:56;23.08;;;10.38;;
22752;SDS011;11543;43.144;24.684;2022-08-25T01:20:23;21.67;;;11.05;;
22752;SDS011;11543;43.144;24.684;2022-08-25T01:22:50;24.33;;;10.27;;
22752;SDS011;11543;43.144;24.684;2022-08-25T01:28:00;26.15;;;11.10;;
22752;SDS011;11543;43.144;24.684;2022-08-25T01:30:26;26.20;;;10.43;;
22752;SDS011;11543;43.144;24.684;2022-08-25T01:32:52;27.27;;;10.88;;
22752;SDS011;11543;43.144;24.684;2022-08-25T01:35:17;22.38;;;10.48;;
22752;SDS011;11543;43.144;24.684;2022-08-25T01:37:43;21.17;;;10.32;;
22752;SDS011;11543;43.144;24.684;2022-08-25T01:40:08;26.70;;;10.50;;
22752;SDS011;11543;43.144;24.684;2022-08-25T01:45:49;24.40;;;10.00;;
22752;SDS011;11543;43.144;24.684;2022-08-25T01:48:15;20.23;;;10.93;;
22752;SDS011;11543;43.144;24.684;2022-08-25T01:50:41;23.85;;;10.65;;
22752;SDS011;11543;43.144;24.684;2022-08-25T01:53:12;21.38;;;10.35;;
22752;SDS011;11543;43.144;24.684;2022-08-25T01:55:45;21.80;;;10.73;;
22752;SDS011;11543;43.144;24.684;2022-08-25T01:58:23;25.75;;;10.10;;
22752;SDS011;11543;43.144;24.684;2022-08-25T02:00:51;27.17;;;9.60;;
22752;SDS011;11543;43.144;24.684;2022-08-25T02:03:21;26.83;;;10.43;;
22752;SDS011;11543;43.144;24.684;2022-08-25T02:05:49;21.05;;;9.60;;
22752;SDS011;11543;43.144;24.684;2022-08-25T02:08:15;27.33;;;9.77;;
22752;SDS011;11543;43.144;24.684;2022-08-25T02:10:41;26.75;;;10.13;;
22752;SDS011;11543;43.144;24.684;2022-08-25T02:13:07;20.25;;;9.45;;
22752;SDS011;11543;43.144;24.684;2022-08-25T02:15:34;24.70;;;10.15;;
22752;SDS011;11543;43.144;24.684;2022-08-25T02:18:03;20.48;;;9.05;;
22752;SDS011;11543;43.144;24.684;2022-08-25T02:20:29;22.83;;;9.65;;
22752;SDS011;11543;43.144;24.684;2022-08-25T02:22:54;28.40;;;9.77;;
22752;SDS011;11543;43.144;24.684;2022-08-25T02:25:20;29.08;;;9.43;;
22752;SDS011;11543;43.144;24.684;2022-08-25T02:27:45;23.58;;;9.45;;
22752;SDS011;11543;43.144;24.684;2022-08-25T02:30:12;28.15;;;9.70;;
22752;SDS011;11543;43.144;24.684;2022-08-25T02:32:38;30.67;;;9.80;;
22752;SDS011;11543;43.144;24.684;2022-08-25T02:35:04;26.60;;;9.60;;
22752;SDS011;11543;43.144;24.684;2022-08-25T02:37:31;34.85;;;9.77;;
22752;SDS011;11543;43.144;24.684;2022-08-25T02:39:57;33.00;;;9.65;;
22752;SDS011;11543;43.144;24.684;2022-08-25T02:42:23;20.55;;;9.52;;
22752;SDS011;11543;43.144;24.684;2022-08-25T02:44:48;22.88;;;9.23;;
22752;SDS011;11543;43.144;24.684;2022-08-25T02:47:14;19.00;;;8.70;;
22752;SDS011;11543;43.144;24.684;2022-08-25T02:49:40;22.20;;;9.25;;
22752;SDS011;11543;43.144;24.684;2022-08-25T02:52:06;23.38;;;9.82;;
22752;SDS011;11543;43.144;24.684;2022-08-25T02:54:32;25.38;;;9.32;;
22752;SDS011;11543;43.144;24.684;2022-08-25T02:56:58;22.58;;;9.75;;
22752;SDS011;11543;43.144;24.684;2022-08-25T02:59:23;25.38;;;9.90;;
22752;SDS011;11543;43.144;24.684;2022-08-25T03:01:49;23.77;;;9.40;;
22752;SDS011;11543;43.144;24.684;2022-08-25T03:04:15;27.25;;;9.32;;
22752;SDS011;11543;43.144;24.684;2022-08-25T03:06:40;23.15;;;9.07;;
22752;SDS011;11543;43.144;24.684;2022-08-25T03:09:06;22.25;;;9.32;;
22752;SDS011;11543;43.144;24.684;2022-08-25T03:11:32;28.60;;;9.23;;
22752;SDS011;11543;43.144;24.684;2022-08-25T03:13:57;21.85;;;9.77;;
22752;SDS011;11543;43.144;24.684;2022-08-25T03:16:23;23.20;;;9.02;;
22752;SDS011;11543;43.144;24.684;2022-08-25T03:18:49;17.65;;;9.27;;
22752;SDS011;11543;43.144;24.684;2022-08-25T03:21:15;24.60;;;9.70;;
22752;SDS011;11543;43.144;24.684;2022-08-25T03:23:40;22.25;;;9.13;;
22752;SDS011;11543;43.144;24.684;2022-08-25T03:26:07;23.55;;;8.27;;
22752;SDS011;11543;43.144;24.684;2022-08-25T03:28:51;27.95;;;8.90;;
22752;SDS011;11543;43.144;24.684;2022-08-25T03:31:19;25.17;;;9.15;;
22752;SDS011;11543;43.144;24.684;2022-08-25T03:33:46;27.02;;;9.23;;
22752;SDS011;11543;43.144;24.684;2022-08-25T03:36:11;22.77;;;9.43;;
22752;SDS011;11543;43.144;24.684;2022-08-25T03:38:37;24.42;;;8.88;;
22752;SDS011;11543;43.144;24.684;2022-08-25T03:41:17;25.85;;;9.18;;
22752;SDS011;11543;43.144;24.684;2022-08-25T03:43:45;25.73;;;9.80;;
22752;SDS011;11543;43.144;24.684;2022-08-25T03:46:22;23.38;;;9.15;;
22752;SDS011;11543;43.144;24.684;2022-08-25T03:51:19;23.08;;;9.05;;
22752;SDS011;11543;43.144;24.684;2022-08-25T03:53:49;22.77;;;9.60;;
22752;SDS011;11543;43.144;24.684;2022-08-25T03:56:15;22.55;;;9.20;;
22752;SDS011;11543;43.144;24.684;2022-08-25T03:58:41;22.08;;;8.80;;
22752;SDS011;11543;43.144;24.684;2022-08-25T04:01:06;22.55;;;9.15;;
22752;SDS011;11543;43.144;24.684;2022-08-25T04:03:32;20.70;;;8.77;;
22752;SDS011;11543;43.144;24.684;2022-08-25T04:06:01;21.27;;;8.98;;
22752;SDS011;11543;43.144;24.684;2022-08-25T04:08:27;23.65;;;8.88;;
22752;SDS011;11543;43.144;24.684;2022-08-25T04:10:52;26.25;;;9.70;;
22752;SDS011;11543;43.144;24.684;2022-08-25T04:13:19;20.63;;;9.52;;
22752;SDS011;11543;43.144;24.684;2022-08-25T04:15:45;23.50;;;9.15;;
22752;SDS011;11543;43.144;24.684;2022-08-25T04:18:10;22.52;;;9.13;;
22752;SDS011;11543;43.144;24.684;2022-08-25T04:20:37;22.38;;;9.05;;
22752;SDS011;11543;43.144;24.684;2022-08-25T04:23:03;25.48;;;9.43;;
22752;SDS011;11543;43.144;24.684;2022-08-25T04:25:28;20.73;;;9.23;;
22752;SDS011;11543;43.144;24.684;2022-08-25T04:27:54;19.75;;;9.00;;
22752;SDS011;11543;43.144;24.684;2022-08-25T04:30:21;22.65;;;9.68;;
22752;SDS011;11543;43.144;24.684;2022-08-25T04:32:47;21.25;;;9.68;;
22752;SDS011;11543;43.144;24.684;2022-08-25T04:35:13;20.85;;;9.40;;
22752;SDS011;11543;43.144;24.684;2022-08-25T04:37:39;21.35;;;9.32;;
22752;SDS011;11543;43.144;24.684;2022-08-25T04:40:07;18.73;;;9.02;;
22752;SDS011;11543;43.144;24.684;2022-08-25T04:42:34;19.27;;;9.05;;
22752;SDS011;11543;43.144;24.684;2022-08-25T04:45:00;26.17;;;9.10;;
22752;SDS011;11543;43.144;24.684;2022-08-25T04:47:26;22.35;;;9.10;;
22752;SDS011;11543;43.144;24.684;2022-08-25T04:49:52;22.38;;;9.52;;
22752;SDS011;11543;43.144;24.684;2022-08-25T04:52:21;18.75;;;8.50;;
22752;SDS011;11543;43.144;24.684;2022-08-25T04:54:46;24.70;;;9.43;;
22752;SDS011;11543;43.144;24.684;2022-08-25T04:57:12;22.10;;;9.18;;
22752;SDS011;11543;43.144;24.684;2022-08-25T04:59:37;27.38;;;8.98;;
22752;SDS011;11543;43.144;24.684;2022-08-25T05:02:03;24.65;;;9.07;;
22752;SDS011;11543;43.144;24.684;2022-08-25T05:04:31;25.63;;;9.77;;
22752;SDS011;11543;43.144;24.684;2022-08-25T05:06:57;21.17;;;9.20;;
22752;SDS011;11543;43.144;24.684;2022-08-25T05:09:23;22.23;;;9.18;;
22752;SDS011;11543;43.144;24.684;2022-08-25T05:11:49;23.23;;;8.23;;
22752;SDS011;11543;43.144;24.684;2022-08-25T05:14:15;19.88;;;9.07;;
22752;SDS011;11543;43.144;24.684;2022-08-25T05:16:45;19.45;;;8.77;;
22752;SDS011;11543;43.144;24.684;2022-08-25T05:19:12;19.98;;;8.88;;
22752;SDS011;11543;43.144;24.684;2022-08-25T05:21:38;25.10;;;8.88;;
22752;SDS011;11543;43.144;24.684;2022-08-25T05:24:04;22.02;;;8.52;;
22752;SDS011;11543;43.144;24.684;2022-08-25T05:26:30;17.45;;;8.13;;
22752;SDS011;11543;43.144;24.684;2022-08-25T05:28:58;16.83;;;8.55;;
22752;SDS011;11543;43.144;24.684;2022-08-25T05:31:26;19.30;;;8.93;;
22752;SDS011;11543;43.144;24.684;2022-08-25T05:33:52;22.65;;;9.00;;
22752;SDS011;11543;43.144;24.684;2022-08-25T05:36:19;19.90;;;9.48;;
22752;SDS011;11543;43.144;24.684;2022-08-25T05:38:46;19.75;;;8.88;;
22752;SDS011;11543;43.144;24.684;2022-08-25T05:41:13;23.00;;;9.00;;
22752;SDS011;11543;43.144;24.684;2022-08-25T05:43:41;22.20;;;9.02;;
22752;SDS011;11543;43.144;24.684;2022-08-25T05:46:09;20.08;;;8.80;;
22752;SDS011;11543;43.144;24.684;2022-08-25T05:48:36;29.63;;;9.32;;
22752;SDS011;11543;43.144;24.684;2022-08-25T05:51:03;37.00;;;22.77;;
22752;SDS011;11543;43.144;24.684;2022-08-25T05:53:30;22.73;;;10.27;;
22752;SDS011;11543;43.144;24.684;2022-08-25T05:55:57;22.30;;;9.48;;
22752;SDS011;11543;43.144;24.684;2022-08-25T05:58:24;33.25;;;18.52;;
22752;SDS011;11543;43.144;24.684;2022-08-25T06:00:54;42.70;;;22.53;;
22752;SDS011;11543;43.144;24.684;2022-08-25T06:03:21;38.60;;;18.83;;
22752;SDS011;11543;43.144;24.684;2022-08-25T06:05:46;24.98;;;12.88;;
22752;SDS011;11543;43.144;24.684;2022-08-25T06:08:12;25.83;;;11.70;;
22752;SDS011;11543;43.144;24.684;2022-08-25T06:10:38;23.60;;;10.85;;
22752;SDS011;11543;43.144;24.684;2022-08-25T06:13:04;22.73;;;11.60;;
22752;SDS011;11543;43.144;24.684;2022-08-25T06:15:29;30.58;;;12.00;;
22752;SDS011;11543;43.144;24.684;2022-08-25T06:17:56;19.48;;;10.32;;
22752;SDS011;11543;43.144;24.684;2022-08-25T06:20:27;30.05;;;13.50;;
22752;SDS011;11543;43.144;24.684;2022-08-25T06:22:54;38.95;;;23.40;;
22752;SDS011;11543;43.144;24.684;2022-08-25T06:25:21;26.83;;;11.98;;
22752;SDS011;11543;43.144;24.684;2022-08-25T06:27:48;26.63;;;13.63;;
22752;SDS011;11543;43.144;24.684;2022-08-25T06:30:16;26.60;;;10.88;;
22752;SDS011;11543;43.144;24.684;2022-08-25T06:32:43;23.45;;;11.18;;
22752;SDS011;11543;43.144;24.684;2022-08-25T06:35:12;22.90;;;10.43;;
22752;SDS011;11543;43.144;24.684;2022-08-25T06:37:41;22.67;;;11.25;;
22752;SDS011;11543;43.144;24.684;2022-08-25T06:40:08;19.35;;;9.57;;
22752;SDS011;11543;43.144;24.684;2022-08-25T06:42:35;31.13;;;10.45;;
22752;SDS011;11543;43.144;24.684;2022-08-25T06:45:01;24.05;;;8.98;;
22752;SDS011;11543;43.144;24.684;2022-08-25T06:47:26;30.50;;;9.50;;
22752;SDS011;11543;43.144;24.684;2022-08-25T06:49:52;23.55;;;8.40;;
22752;SDS011;11543;43.144;24.684;2022-08-25T06:52:17;27.33;;;8.43;;
22752;SDS011;11543;43.144;24.684;2022-08-25T06:54:43;24.65;;;8.68;;
22752;SDS011;11543;43.144;24.684;2022-08-25T06:57:09;27.02;;;8.30;;
22752;SDS011;11543;43.144;24.684;2022-08-25T06:59:35;23.15;;;7.97;;
22752;SDS011;11543;43.144;24.684;2022-08-25T07:02:01;30.38;;;7.88;;
22752;SDS011;11543;43.144;24.684;2022-08-25T07:04:28;21.63;;;7.75;;
22752;SDS011;11543;43.144;24.684;2022-08-25T07:06:53;22.65;;;7.40;;
22752;SDS011;11543;43.144;24.684;2022-08-25T07:09:19;21.10;;;7.35;;
22752;SDS011;11543;43.144;24.684;2022-08-25T07:11:44;26.85;;;7.95;;
22752;SDS011;11543;43.144;24.684;2022-08-25T07:14:11;21.27;;;6.95;;
22752;SDS011;11543;43.144;24.684;2022-08-25T07:16:39;29.40;;;7.20;;
22752;SDS011;11543;43.144;24.684;2022-08-25T07:19:05;27.52;;;7.07;;
22752;SDS011;11543;43.144;24.684;2022-08-25T07:21:32;20.45;;;6.85;;
22752;SDS011;11543;43.144;24.684;2022-08-25T07:24:00;27.33;;;6.90;;
22752;SDS011;11543;43.144;24.684;2022-08-25T07:26:29;33.97;;;6.30;;
22752;SDS011;11543;43.144;24.684;2022-08-25T07:28:56;27.65;;;6.38;;
22752;SDS011;11543;43.144;24.684;2022-08-25T07:31:22;31.00;;;7.55;;
22752;SDS011;11543;43.144;24.684;2022-08-25T07:33:48;28.60;;;6.50;;
22752;SDS011;11543;43.144;24.684;2022-08-25T07:36:33;26.27;;;6.28;;
22752;SDS011;11543;43.144;24.684;2022-08-25T07:38:59;26.40;;;6.00;;
22752;SDS011;11543;43.144;24.684;2022-08-25T07:41:28;28.75;;;6.30;;
22752;SDS011;11543;43.144;24.684;2022-08-25T07:43:54;26.60;;;6.03;;
22752;SDS011;11543;43.144;24.684;2022-08-25T07:46:20;32.63;;;6.97;;
22752;SDS011;11543;43.144;24.684;2022-08-25T07:48:46;27.83;;;6.45;;
22752;SDS011;11543;43.144;24.684;2022-08-25T07:51:12;22.55;;;6.70;;
22752;SDS011;11543;43.144;24.684;2022-08-25T07:53:41;33.97;;;5.97;;
22752;SDS011;11543;43.144;24.684;2022-08-25T07:56:11;28.17;;;5.65;;
22752;SDS011;11543;43.144;24.684;2022-08-25T07:58:37;37.33;;;6.03;;
22752;SDS011;11543;43.144;24.684;2022-08-25T08:01:04;30.17;;;5.13;;
22752;SDS011;11543;43.144;24.684;2022-08-25T08:03:29;32.65;;;5.70;;
22752;SDS011;11543;43.144;24.684;2022-08-25T08:05:58;28.48;;;5.50;;
22752;SDS011;11543;43.144;24.684;2022-08-25T08:08:23;27.90;;;6.10;;
22752;SDS011;11543;43.144;24.684;2022-08-25T08:10:49;25.17;;;5.70;;
22752;SDS011;11543;43.144;24.684;2022-08-25T08:13:14;23.73;;;5.72;;
22752;SDS011;11543;43.144;24.684;2022-08-25T08:15:41;33.90;;;5.47;;
22752;SDS011;11543;43.144;24.684;2022-08-25T08:18:07;33.97;;;5.40;;
22752;SDS011;11543;43.144;24.684;2022-08-25T08:20:34;28.63;;;5.28;;
22752;SDS011;11543;43.144;24.684;2022-08-25T08:23:00;32.97;;;5.88;;
22752;SDS011;11543;43.144;24.684;2022-08-25T08:25:25;29.20;;;6.03;;
22752;SDS011;11543;43.144;24.684;2022-08-25T08:27:51;34.65;;;5.93;;
22752;SDS011;11543;43.144;24.684;2022-08-25T08:30:16;37.72;;;5.65;;
22752;SDS011;11543;43.144;24.684;2022-08-25T08:32:42;28.60;;;5.60;;
22752;SDS011;11543;43.144;24.684;2022-08-25T08:35:08;23.27;;;5.38;;
22752;SDS011;11543;43.144;24.684;2022-08-25T08:37:35;27.58;;;5.53;;
22752;SDS011;11543;43.144;24.684;2022-08-25T08:40:06;35.72;;;5.82;;
22752;SDS011;11543;43.144;24.684;2022-08-25T08:45:25;31.45;;;5.25;;
22752;SDS011;11543;43.144;24.684;2022-08-25T08:56:05;28.33;;;5.10;;
22752;SDS011;11543;43.144;24.684;2022-08-25T08:58:39;38.17;;;5.37;;
22752;SDS011;11543;43.144;24.684;2022-08-25T09:01:06;27.38;;;4.97;;
22752;SDS011;11543;43.144;24.684;2022-08-25T09:03:42;26.13;;;4.80;;
22752;SDS011;11543;43.144;24.684;2022-08-25T09:06:23;27.25;;;5.05;;
22752;SDS011;11543;43.144;24.684;2022-08-25T09:08:56;23.45;;;4.55;;
22752;SDS011;11543;43.144;24.684;2022-08-25T09:17:01;34.90;;;5.35;;
22752;SDS011;11543;43.144;24.684;2022-08-25T09:27:38;27.23;;;5.35;;
22752;SDS011;11543;43.144;24.684;2022-08-25T09:30:13;31.48;;;4.80;;
22752;SDS011;11543;43.144;24.684;2022-08-25T09:32:42;24.42;;;4.43;;
22752;SDS011;11543;43.144;24.684;2022-08-25T09:35:20;30.30;;;4.65;;
22752;SDS011;11543;43.144;24.684;2022-08-25T09:37:57;30.98;;;5.40;;
22752;SDS011;11543;43.144;24.684;2022-08-25T09:40:24;30.75;;;4.53;;
22752;SDS011;11543;43.144;24.684;2022-08-25T09:42:51;26.88;;;4.18;;
22752;SDS011;11543;43.144;24.684;2022-08-25T09:45:33;26.38;;;4.97;;
22752;SDS011;11543;43.144;24.684;2022-08-25T09:47:59;31.63;;;4.70;;
22752;SDS011;11543;43.144;24.684;2022-08-25T09:50:24;20.65;;;4.68;;
22752;SDS011;11543;43.144;24.684;2022-08-25T09:52:58;22.05;;;4.53;;
22752;SDS011;11543;43.144;24.684;2022-08-25T09:55:38;27.17;;;4.40;;
22752;SDS011;11543;43.144;24.684;2022-08-25T09:58:17;30.48;;;4.35;;
22752;SDS011;11543;43.144;24.684;2022-08-25T10:00:59;24.05;;;4.57;;
22752;SDS011;11543;43.144;24.684;2022-08-25T10:03:37;28.17;;;4.30;;
22752;SDS011;11543;43.144;24.684;2022-08-25T10:06:06;24.00;;;4.32;;
22752;SDS011;11543;43.144;24.684;2022-08-25T10:11:05;28.45;;;3.65;;
22752;SDS011;11543;43.144;24.684;2022-08-25T10:13:44;26.00;;;3.58;;
22752;SDS011;11543;43.144;24.684;2022-08-25T10:16:22;24.77;;;3.75;;
22752;SDS011;11543;43.144;24.684;2022-08-25T10:19:12;23.80;;;2.85;;
22752;SDS011;11543;43.144;24.684;2022-08-25T10:24:33;27.75;;;3.40;;
22752;SDS011;11543;43.144;24.684;2022-08-25T10:35:12;19.40;;;3.70;;
22752;SDS011;11543;43.144;24.684;2022-08-25T10:38:02;24.67;;;3.30;;
22752;SDS011;11543;43.144;24.684;2022-08-25T10:43:18;20.25;;;3.15;;
22752;SDS011;11543;43.144;24.684;2022-08-25T10:45:50;19.10;;;2.85;;
22752;SDS011;11543;43.144;24.684;2022-08-25T10:48:29;20.30;;;2.58;;
22752;SDS011;11543;43.144;24.684;2022-08-25T10:56:36;18.13;;;2.90;;
22752;SDS011;11543;43.144;24.684;2022-08-25T11:01:47;16.85;;;3.20;;
22752;SDS011;11543;43.144;24.684;2022-08-25T11:04:41;22.63;;;2.92;;
22752;SDS011;11543;43.144;24.684;2022-08-25T11:07:30;21.50;;;3.25;;
22752;SDS011;11543;43.144;24.684;2022-08-25T11:10:05;25.05;;;2.90;;
22752;SDS011;11543;43.144;24.684;2022-08-25T11:12:40;20.63;;;2.97;;
22752;SDS011;11543;43.144;24.684;2022-08-25T11:15:27;23.65;;;2.90;;
22752;SDS011;11543;43.144;24.684;2022-08-25T11:18:01;24.70;;;3.10;;
22752;SDS011;11543;43.144;24.684;2022-08-25T11:20:32;17.33;;;2.72;;
22752;SDS011;11543;43.144;24.684;2022-08-25T11:25:58;18.52;;;2.40;;
22752;SDS011;11543;43.144;24.684;2022-08-25T11:30:54;13.85;;;2.40;;
22752;SDS011;11543;43.144;24.684;2022-08-25T11:33:22;13.68;;;2.88;;
22752;SDS011;11543;43.144;24.684;2022-08-25T11:35:52;21.90;;;2.95;;
22752;SDS011;11543;43.144;24.684;2022-08-25T11:41:40;22.88;;;2.33;;
22752;SDS011;11543;43.144;24.684;2022-08-25T11:46:55;21.45;;;3.08;;
22752;SDS011;11543;43.144;24.684;2022-08-25T11:52:37;17.05;;;2.88;;
22752;SDS011;11543;43.144;24.684;2022-08-25T11:57:42;16.70;;;2.38;;
22752;SDS011;11543;43.144;24.684;2022-08-25T12:00:14;15.80;;;2.38;;
22752;SDS011;11543;43.144;24.684;2022-08-25T12:14:35;18.90;;;3.28;;
22752;SDS011;11543;43.144;24.684;2022-08-25T12:40:28;19.80;;;2.50;;
22752;SDS011;11543;43.144;24.684;2022-08-25T12:43:08;17.05;;;2.97;;
22752;SDS011;11543;43.144;24.684;2022-08-25T12:45:50;20.90;;;3.28;;
22752;SDS011;11543;43.144;24.684;2022-08-25T12:51:25;16.42;;;2.90;;
22752;SDS011;11543;43.144;24.684;2022-08-25T12:53:51;24.27;;;3.05;;
22752;SDS011;11543;43.144;24.684;2022-08-25T12:56:25;16.63;;;3.08;;
22752;SDS011;11543;43.144;24.684;2022-08-25T12:59:10;20.40;;;2.92;;
22752;SDS011;11543;43.144;24.684;2022-08-25T13:05:08;20.13;;;3.00;;
22752;SDS011;11543;43.144;24.684;2022-08-25T13:07:43;21.08;;;2.78;;
22752;SDS011;11543;43.144;24.684;2022-08-25T13:16:25;20.80;;;3.28;;
22752;SDS011;11543;43.144;24.684;2022-08-25T13:18:52;22.85;;;3.13;;
22752;SDS011;11543;43.144;24.684;2022-08-25T13:21:32;28.65;;;3.08;;
22752;SDS011;11543;43.144;24.684;2022-08-25T13:24:01;20.05;;;3.10;;
22752;SDS011;11543;43.144;24.684;2022-08-25T13:26:51;23.80;;;2.90;;
22752;SDS011;11543;43.144;24.684;2022-08-25T13:29:21;20.80;;;3.08;;
22752;SDS011;11543;43.144;24.684;2022-08-25T13:32:01;24.77;;;2.97;;
22752;SDS011;11543;43.144;24.684;2022-08-25T13:34:31;19.45;;;3.00;;
22752;SDS011;11543;43.144;24.684;2022-08-25T13:37:24;21.17;;;3.08;;
22752;SDS011;11543;43.144;24.684;2022-08-25T13:42:36;19.08;;;3.05;;
22752;SDS011;11543;43.144;24.684;2022-08-25T13:45:04;17.67;;;2.45;;
22752;SDS011;11543;43.144;24.684;2022-08-25T13:47:34;22.08;;;2.75;;
22752;SDS011;11543;43.144;24.684;2022-08-25T13:52:40;26.95;;;3.30;;
22752;SDS011;11543;43.144;24.684;2022-08-25T13:55:08;16.85;;;2.97;;
22752;SDS011;11543;43.144;24.684;2022-08-25T13:57:34;19.30;;;3.17;;
22752;SDS011;11543;43.144;24.684;2022-08-25T14:00:08;25.15;;;3.10;;
22752;SDS011;11543;43.144;24.684;2022-08-25T14:02:49;22.15;;;3.00;;
22752;SDS011;11543;43.144;24.684;2022-08-25T14:05:28;19.98;;;2.97;;
22752;SDS011;11543;43.144;24.684;2022-08-25T14:07:57;17.20;;;2.88;;
22752;SDS011;11543;43.144;24.684;2022-08-25T14:13:14;22.38;;;2.90;;
22752;SDS011;11543;43.144;24.684;2022-08-25T14:15:53;17.60;;;2.78;;
22752;SDS011;11543;43.144;24.684;2022-08-25T14:18:25;16.42;;;2.85;;
22752;SDS011;11543;43.144;24.684;2022-08-25T14:20:56;15.00;;;2.70;;
22752;SDS011;11543;43.144;24.684;2022-08-25T14:23:24;18.98;;;3.10;;
22752;SDS011;11543;43.144;24.684;2022-08-25T14:25:55;15.05;;;2.85;;
22752;SDS011;11543;43.144;24.684;2022-08-25T14:28:22;22.35;;;2.80;;
22752;SDS011;11543;43.144;24.684;2022-08-25T14:30:51;15.70;;;2.58;;
22752;SDS011;11543;43.144;24.684;2022-08-25T14:33:21;26.48;;;3.38;;
22752;SDS011;11543;43.144;24.684;2022-08-25T14:35:51;17.63;;;2.73;;
22752;SDS011;11543;43.144;24.684;2022-08-25T14:38:18;25.00;;;3.80;;
22752;SDS011;11543;43.144;24.684;2022-08-25T14:40:45;17.70;;;2.92;;
22752;SDS011;11543;43.144;24.684;2022-08-25T14:43:12;17.63;;;2.95;;
22752;SDS011;11543;43.144;24.684;2022-08-25T14:45:39;18.35;;;2.85;;
22752;SDS011;11543;43.144;24.684;2022-08-25T14:48:07;20.85;;;2.92;;
22752;SDS011;11543;43.144;24.684;2022-08-25T14:53:03;17.42;;;2.63;;
22752;SDS011;11543;43.144;24.684;2022-08-25T14:55:29;15.35;;;3.15;;
22752;SDS011;11543;43.144;24.684;2022-08-25T14:57:54;18.02;;;2.92;;
22752;SDS011;11543;43.144;24.684;2022-08-25T15:00:20;11.38;;;2.25;;
22752;SDS011;11543;43.144;24.684;2022-08-25T15:02:46;17.10;;;2.65;;
22752;SDS011;11543;43.144;24.684;2022-08-25T15:05:19;16.10;;;2.72;;
22752;SDS011;11543;43.144;24.684;2022-08-25T15:07:48;16.45;;;2.88;;
22752;SDS011;11543;43.144;24.684;2022-08-25T15:10:32;18.90;;;2.60;;
22752;SDS011;11543;43.144;24.684;2022-08-25T15:12:58;21.38;;;2.70;;
22752;SDS011;11543;43.144;24.684;2022-08-25T15:15:23;21.42;;;2.75;;
22752;SDS011;11543;43.144;24.684;2022-08-25T15:17:50;10.00;;;2.53;;
22752;SDS011;11543;43.144;24.684;2022-08-25T15:20:16;14.77;;;2.90;;
22752;SDS011;11543;43.144;24.684;2022-08-25T15:22:43;17.17;;;2.80;;
22752;SDS011;11543;43.144;24.684;2022-08-25T15:25:09;12.68;;;2.83;;
22752;SDS011;11543;43.144;24.684;2022-08-25T15:27:35;10.77;;;2.53;;
22752;SDS011;11543;43.144;24.684;2022-08-25T15:30:00;17.90;;;2.80;;
22752;SDS011;11543;43.144;24.684;2022-08-25T15:32:26;18.08;;;2.67;;
22752;SDS011;11543;43.144;24.684;2022-08-25T15:34:52;19.10;;;3.17;;
22752;SDS011;11543;43.144;24.684;2022-08-25T15:37:18;23.33;;;2.90;;
22752;SDS011;11543;43.144;24.684;2022-08-25T15:39:44;12.15;;;2.80;;
22752;SDS011;11543;43.144;24.684;2022-08-25T15:42:10;13.70;;;3.13;;
22752;SDS011;11543;43.144;24.684;2022-08-25T15:44:39;18.33;;;3.10;;
22752;SDS011;11543;43.144;24.684;2022-08-25T15:47:06;12.38;;;3.28;;
22752;SDS011;11543;43.144;24.684;2022-08-25T15:49:32;19.20;;;2.92;;
22752;SDS011;11543;43.144;24.684;2022-08-25T15:51:57;15.52;;;2.80;;
22752;SDS011;11543;43.144;24.684;2022-08-25T15:54:24;18.27;;;3.10;;
22752;SDS011;11543;43.144;24.684;2022-08-25T15:56:50;18.48;;;4.15;;
22752;SDS011;11543;43.144;24.684;2022-08-25T15:59:16;17.30;;;3.05;;
22752;SDS011;11543;43.144;24.684;2022-08-25T16:01:42;19.27;;;3.05;;
22752;SDS011;11543;43.144;24.684;2022-08-25T16:04:08;16.65;;;3.60;;
22752;SDS011;11543;43.144;24.684;2022-08-25T16:06:34;21.88;;;2.97;;
22752;SDS011;11543;43.144;24.684;2022-08-25T16:09:00;20.17;;;3.30;;
22752;SDS011;11543;43.144;24.684;2022-08-25T16:11:29;22.10;;;3.70;;
22752;SDS011;11543;43.144;24.684;2022-08-25T16:13:58;43.80;;;12.00;;
22752;SDS011;11543;43.144;24.684;2022-08-25T16:16:26;48.50;;;11.52;;
22752;SDS011;11543;43.144;24.684;2022-08-25T16:18:54;32.60;;;6.47;;
22752;SDS011;11543;43.144;24.684;2022-08-25T16:21:22;31.13;;;7.47;;
22752;SDS011;11543;43.144;24.684;2022-08-25T16:23:52;28.67;;;6.38;;
22752;SDS011;11543;43.144;24.684;2022-08-25T16:26:19;28.23;;;4.65;;
22752;SDS011;11543;43.144;24.684;2022-08-25T16:28:45;26.38;;;4.10;;
22752;SDS011;11543;43.144;24.684;2022-08-25T16:31:11;24.10;;;3.40;;
22752;SDS011;11543;43.144;24.684;2022-08-25T16:33:38;25.67;;;3.90;;
22752;SDS011;11543;43.144;24.684;2022-08-25T16:36:08;25.48;;;3.63;;
22752;SDS011;11543;43.144;24.684;2022-08-25T16:38:39;23.08;;;3.55;;
22752;SDS011;11543;43.144;24.684;2022-08-25T16:41:11;22.27;;;3.70;;